sensor_id;sensor_type;location;lat;lon;timestamp;P1;durP1;ratioP1;P2;durP2;ratioP2
50417;SDS011;36346;48.280;14.292;2023-02-22T00:02:02;15.71;;;15.68;;
50417;SDS011;36346;48.280;14.292;2023-02-22T00:04:52;15.53;;;15.53;;
50417;SDS011;36346;48.280;14.292;2023-02-22T00:07:20;14.71;;;14.67;;
50417;SDS011;36346;48.280;14.292;2023-02-22T00:09:50;14.26;;;14.21;;
50417;SDS011;36346;48.280;14.292;2023-02-22T00:12:18;13.64;;;13.64;;
50417;SDS011;36346;48.280;14.292;2023-02-22T00:14:47;13.66;;;13.66;;
50417;SDS011;36346;48.280;14.292;2023-02-22T00:17:15;14.86;;;14.85;;
50417;SDS011;36346;48.280;14.292;2023-02-22T00:19:43;14.49;;;14.46;;
50417;SDS011;36346;48.280;14.292;2023-02-22T00:22:11;12.91;;;12.91;;
50417;SDS011;36346;48.280;14.292;2023-02-22T00:24:39;11.77;;;11.77;;
50417;SDS011;36346;48.280;14.292;2023-02-22T00:27:06;11.88;;;11.88;;
50417;SDS011;36346;48.280;14.292;2023-02-22T00:29:34;12.88;;;12.88;;
50417;SDS011;36346;48.280;14.292;2023-02-22T00:32:03;13.00;;;13.00;;
50417;SDS011;36346;48.280;14.292;2023-02-22T00:34:32;12.27;;;12.27;;
50417;SDS011;36346;48.280;14.292;2023-02-22T00:36:59;12.12;;;12.11;;
50417;SDS011;36346;48.280;14.292;2023-02-22T00:39:30;13.06;;;13.01;;
50417;SDS011;36346;48.280;14.292;2023-02-22T00:41:59;13.42;;;13.41;;
50417;SDS011;36346;48.280;14.292;2023-02-22T00:44:28;13.83;;;13.83;;
50417;SDS011;36346;48.280;14.292;2023-02-22T00:46:56;15.02;;;15.02;;
50417;SDS011;36346;48.280;14.292;2023-02-22T00:49:24;15.03;;;15.01;;
50417;SDS011;36346;48.280;14.292;2023-02-22T00:51:52;16.14;;;16.09;;
50417;SDS011;36346;48.280;14.292;2023-02-22T00:54:21;14.79;;;14.79;;
50417;SDS011;36346;48.280;14.292;2023-02-22T00:56:49;15.53;;;15.53;;
50417;SDS011;36346;48.280;14.292;2023-02-22T00:59:17;15.80;;;15.80;;
50417;SDS011;36346;48.280;14.292;2023-02-22T01:01:44;16.73;;;16.73;;
50417;SDS011;36346;48.280;14.292;2023-02-22T01:04:12;16.43;;;16.42;;
50417;SDS011;36346;48.280;14.292;2023-02-22T01:06:40;18.00;;;17.95;;
50417;SDS011;36346;48.280;14.292;2023-02-22T01:09:08;17.26;;;17.26;;
50417;SDS011;36346;48.280;14.292;2023-02-22T01:11:36;17.30;;;17.26;;
50417;SDS011;36346;48.280;14.292;2023-02-22T01:14:04;17.37;;;17.33;;
50417;SDS011;36346;48.280;14.292;2023-02-22T01:16:36;17.00;;;17.00;;
50417;SDS011;36346;48.280;14.292;2023-02-22T01:19:04;16.07;;;16.04;;
50417;SDS011;36346;48.280;14.292;2023-02-22T01:21:32;16.20;;;16.18;;
50417;SDS011;36346;48.280;14.292;2023-02-22T01:24:00;16.38;;;16.37;;
50417;SDS011;36346;48.280;14.292;2023-02-22T01:26:28;16.97;;;16.92;;
50417;SDS011;36346;48.280;14.292;2023-02-22T01:28:56;16.08;;;16.04;;
50417;SDS011;36346;48.280;14.292;2023-02-22T01:31:25;16.62;;;16.57;;
50417;SDS011;36346;48.280;14.292;2023-02-22T01:33:53;16.30;;;16.26;;
50417;SDS011;36346;48.280;14.292;2023-02-22T01:36:21;15.52;;;15.50;;
50417;SDS011;36346;48.280;14.292;2023-02-22T01:38:49;16.04;;;16.04;;
50417;SDS011;36346;48.280;14.292;2023-02-22T01:41:16;16.13;;;16.10;;
50417;SDS011;36346;48.280;14.292;2023-02-22T01:43:45;16.24;;;16.20;;
50417;SDS011;36346;48.280;14.292;2023-02-22T01:46:24;16.40;;;16.40;;
50417;SDS011;36346;48.280;14.292;2023-02-22T01:49:00;16.33;;;16.31;;
50417;SDS011;36346;48.280;14.292;2023-02-22T01:51:33;16.75;;;16.69;;
50417;SDS011;36346;48.280;14.292;2023-02-22T01:56:50;17.71;;;17.67;;
50417;SDS011;36346;48.280;14.292;2023-02-22T01:59:26;17.77;;;17.62;;
50417;SDS011;36346;48.280;14.292;2023-02-22T02:01:59;17.97;;;17.97;;
50417;SDS011;36346;48.280;14.292;2023-02-22T02:04:28;18.19;;;18.19;;
50417;SDS011;36346;48.280;14.292;2023-02-22T02:06:57;17.98;;;17.97;;
50417;SDS011;36346;48.280;14.292;2023-02-22T02:09:36;18.00;;;17.99;;
50417;SDS011;36346;48.280;14.292;2023-02-22T02:12:10;17.46;;;17.45;;
50417;SDS011;36346;48.280;14.292;2023-02-22T02:14:42;19.08;;;19.07;;
50417;SDS011;36346;48.280;14.292;2023-02-22T02:17:12;17.93;;;17.89;;
50417;SDS011;36346;48.280;14.292;2023-02-22T02:27:49;17.46;;;17.40;;
50417;SDS011;36346;48.280;14.292;2023-02-22T02:33:39;17.22;;;17.21;;
50417;SDS011;36346;48.280;14.292;2023-02-22T02:36:24;17.89;;;17.86;;
50417;SDS011;36346;48.280;14.292;2023-02-22T02:38:58;17.68;;;17.68;;
50417;SDS011;36346;48.280;14.292;2023-02-22T02:41:48;17.03;;;17.02;;
50417;SDS011;36346;48.280;14.292;2023-02-22T02:44:30;17.05;;;17.01;;
50417;SDS011;36346;48.280;14.292;2023-02-22T02:47:05;16.99;;;16.98;;
50417;SDS011;36346;48.280;14.292;2023-02-22T02:49:46;17.74;;;17.74;;
50417;SDS011;36346;48.280;14.292;2023-02-22T02:52:20;16.00;;;16.00;;
50417;SDS011;36346;48.280;14.292;2023-02-22T02:54:52;16.22;;;16.22;;
50417;SDS011;36346;48.280;14.292;2023-02-22T02:57:22;16.78;;;16.78;;
50417;SDS011;36346;48.280;14.292;2023-02-22T02:59:51;16.05;;;16.03;;
50417;SDS011;36346;48.280;14.292;2023-02-22T03:02:24;16.22;;;16.21;;
50417;SDS011;36346;48.280;14.292;2023-02-22T03:10:19;15.49;;;15.48;;
50417;SDS011;36346;48.280;14.292;2023-02-22T03:18:18;15.93;;;15.90;;
50417;SDS011;36346;48.280;14.292;2023-02-22T03:23:37;16.30;;;16.27;;
50417;SDS011;36346;48.280;14.292;2023-02-22T03:26:15;16.44;;;16.43;;
50417;SDS011;36346;48.280;14.292;2023-02-22T03:28:54;16.22;;;16.12;;
50417;SDS011;36346;48.280;14.292;2023-02-22T03:31:24;16.65;;;16.62;;
50417;SDS011;36346;48.280;14.292;2023-02-22T03:33:59;17.22;;;17.22;;
50417;SDS011;36346;48.280;14.292;2023-02-22T03:36:55;16.80;;;16.80;;
50417;SDS011;36346;48.280;14.292;2023-02-22T03:39:29;17.06;;;17.06;;
50417;SDS011;36346;48.280;14.292;2023-02-22T03:42:10;17.21;;;17.18;;
50417;SDS011;36346;48.280;14.292;2023-02-22T03:44:42;17.22;;;17.20;;
50417;SDS011;36346;48.280;14.292;2023-02-22T03:47:16;16.66;;;16.64;;
50417;SDS011;36346;48.280;14.292;2023-02-22T03:49:54;17.62;;;17.60;;
50417;SDS011;36346;48.280;14.292;2023-02-22T03:52:27;17.14;;;17.12;;
50417;SDS011;36346;48.280;14.292;2023-02-22T03:54:55;17.30;;;17.30;;
50417;SDS011;36346;48.280;14.292;2023-02-22T03:57:24;17.76;;;17.73;;
50417;SDS011;36346;48.280;14.292;2023-02-22T04:00:06;16.55;;;16.52;;
50417;SDS011;36346;48.280;14.292;2023-02-22T04:02:40;17.11;;;17.10;;
50417;SDS011;36346;48.280;14.292;2023-02-22T04:05:13;16.64;;;16.62;;
50417;SDS011;36346;48.280;14.292;2023-02-22T04:07:42;17.17;;;17.17;;
50417;SDS011;36346;48.280;14.292;2023-02-22T04:10:12;17.75;;;17.70;;
50417;SDS011;36346;48.280;14.292;2023-02-22T04:12:43;18.72;;;18.60;;
50417;SDS011;36346;48.280;14.292;2023-02-22T04:15:12;18.14;;;18.10;;
50417;SDS011;36346;48.280;14.292;2023-02-22T04:17:43;17.93;;;17.89;;
50417;SDS011;36346;48.280;14.292;2023-02-22T04:20:14;17.99;;;17.98;;
50417;SDS011;36346;48.280;14.292;2023-02-22T04:22:59;18.55;;;18.54;;
50417;SDS011;36346;48.280;14.292;2023-02-22T04:25:27;18.76;;;18.74;;
50417;SDS011;36346;48.280;14.292;2023-02-22T04:27:56;18.90;;;18.89;;
50417;SDS011;36346;48.280;14.292;2023-02-22T04:30:36;19.13;;;19.12;;
50417;SDS011;36346;48.280;14.292;2023-02-22T04:33:07;19.20;;;19.17;;
50417;SDS011;36346;48.280;14.292;2023-02-22T04:35:36;19.53;;;19.47;;
50417;SDS011;36346;48.280;14.292;2023-02-22T04:38:05;19.72;;;19.72;;
50417;SDS011;36346;48.280;14.292;2023-02-22T04:40:39;19.52;;;19.51;;
50417;SDS011;36346;48.280;14.292;2023-02-22T04:43:07;20.09;;;20.00;;
50417;SDS011;36346;48.280;14.292;2023-02-22T04:45:35;19.43;;;19.42;;
50417;SDS011;36346;48.280;14.292;2023-02-22T04:48:05;19.94;;;19.91;;
50417;SDS011;36346;48.280;14.292;2023-02-22T04:50:33;18.90;;;18.87;;
50417;SDS011;36346;48.280;14.292;2023-02-22T04:53:02;23.43;;;23.28;;
50417;SDS011;36346;48.280;14.292;2023-02-22T04:55:30;31.11;;;30.92;;
50417;SDS011;36346;48.280;14.292;2023-02-22T04:57:59;37.11;;;36.74;;
50417;SDS011;36346;48.280;14.292;2023-02-22T05:00:27;27.18;;;27.00;;
50417;SDS011;36346;48.280;14.292;2023-02-22T05:02:59;20.04;;;20.00;;
50417;SDS011;36346;48.280;14.292;2023-02-22T05:05:28;19.31;;;19.29;;
50417;SDS011;36346;48.280;14.292;2023-02-22T05:07:56;20.21;;;20.16;;
50417;SDS011;36346;48.280;14.292;2023-02-22T05:10:24;19.52;;;19.51;;
50417;SDS011;36346;48.280;14.292;2023-02-22T05:12:52;19.72;;;19.72;;
50417;SDS011;36346;48.280;14.292;2023-02-22T05:15:20;19.78;;;19.78;;
50417;SDS011;36346;48.280;14.292;2023-02-22T05:17:48;19.12;;;19.12;;
50417;SDS011;36346;48.280;14.292;2023-02-22T05:22:58;19.32;;;19.32;;
50417;SDS011;36346;48.280;14.292;2023-02-22T05:25:28;19.00;;;18.98;;
50417;SDS011;36346;48.280;14.292;2023-02-22T05:27:57;19.69;;;19.63;;
50417;SDS011;36346;48.280;14.292;2023-02-22T05:30:32;20.31;;;20.26;;
50417;SDS011;36346;48.280;14.292;2023-02-22T05:33:01;20.35;;;20.33;;
50417;SDS011;36346;48.280;14.292;2023-02-22T05:35:29;19.33;;;19.32;;
50417;SDS011;36346;48.280;14.292;2023-02-22T05:37:57;18.82;;;18.82;;
50417;SDS011;36346;48.280;14.292;2023-02-22T05:40:28;18.47;;;18.47;;
50417;SDS011;36346;48.280;14.292;2023-02-22T05:42:57;18.77;;;18.76;;
50417;SDS011;36346;48.280;14.292;2023-02-22T05:45:26;17.74;;;17.70;;
50417;SDS011;36346;48.280;14.292;2023-02-22T05:47:55;17.52;;;17.52;;
50417;SDS011;36346;48.280;14.292;2023-02-22T05:50:23;17.41;;;17.40;;
50417;SDS011;36346;48.280;14.292;2023-02-22T05:52:52;17.62;;;17.62;;
50417;SDS011;36346;48.280;14.292;2023-02-22T05:55:22;17.76;;;17.76;;
50417;SDS011;36346;48.280;14.292;2023-02-22T05:57:51;18.27;;;18.26;;
50417;SDS011;36346;48.280;14.292;2023-02-22T06:00:26;18.03;;;18.01;;
50417;SDS011;36346;48.280;14.292;2023-02-22T06:02:57;18.65;;;18.65;;
50417;SDS011;36346;48.280;14.292;2023-02-22T06:05:30;20.05;;;20.03;;
50417;SDS011;36346;48.280;14.292;2023-02-22T06:08:00;19.68;;;19.67;;
50417;SDS011;36346;48.280;14.292;2023-02-22T06:10:28;19.31;;;19.29;;
50417;SDS011;36346;48.280;14.292;2023-02-22T06:12:56;19.22;;;19.22;;
50417;SDS011;36346;48.280;14.292;2023-02-22T06:15:25;19.33;;;19.30;;
50417;SDS011;36346;48.280;14.292;2023-02-22T06:17:55;19.15;;;19.09;;
50417;SDS011;36346;48.280;14.292;2023-02-22T06:20:26;19.00;;;18.96;;
50417;SDS011;36346;48.280;14.292;2023-02-22T06:22:55;21.41;;;21.33;;
50417;SDS011;36346;48.280;14.292;2023-02-22T06:25:27;21.65;;;21.49;;
50417;SDS011;36346;48.280;14.292;2023-02-22T06:27:58;21.77;;;21.62;;
50417;SDS011;36346;48.280;14.292;2023-02-22T06:30:27;21.01;;;20.89;;
50417;SDS011;36346;48.280;14.292;2023-02-22T06:32:55;19.76;;;19.64;;
50417;SDS011;36346;48.280;14.292;2023-02-22T06:35:23;19.51;;;19.44;;
50417;SDS011;36346;48.280;14.292;2023-02-22T06:37:51;19.49;;;19.46;;
50417;SDS011;36346;48.280;14.292;2023-02-22T06:40:19;18.64;;;18.57;;
50417;SDS011;36346;48.280;14.292;2023-02-22T06:42:47;17.99;;;17.99;;
50417;SDS011;36346;48.280;14.292;2023-02-22T06:45:16;17.87;;;17.87;;
50417;SDS011;36346;48.280;14.292;2023-02-22T06:47:44;18.08;;;18.08;;
50417;SDS011;36346;48.280;14.292;2023-02-22T06:50:17;18.66;;;18.64;;
50417;SDS011;36346;48.280;14.292;2023-02-22T06:52:49;17.73;;;17.71;;
50417;SDS011;36346;48.280;14.292;2023-02-22T06:55:18;17.04;;;17.01;;
50417;SDS011;36346;48.280;14.292;2023-02-22T06:57:50;17.27;;;17.26;;
50417;SDS011;36346;48.280;14.292;2023-02-22T07:00:19;16.81;;;16.79;;
50417;SDS011;36346;48.280;14.292;2023-02-22T07:02:49;17.03;;;17.02;;
50417;SDS011;36346;48.280;14.292;2023-02-22T07:05:18;17.25;;;17.25;;
50417;SDS011;36346;48.280;14.292;2023-02-22T07:07:48;18.23;;;18.22;;
50417;SDS011;36346;48.280;14.292;2023-02-22T07:10:26;18.37;;;18.37;;
50417;SDS011;36346;48.280;14.292;2023-02-22T07:12:55;18.71;;;18.71;;
50417;SDS011;36346;48.280;14.292;2023-02-22T07:15:24;18.61;;;18.53;;
50417;SDS011;36346;48.280;14.292;2023-02-22T07:17:54;18.85;;;18.84;;
50417;SDS011;36346;48.280;14.292;2023-02-22T07:20:22;19.36;;;19.34;;
50417;SDS011;36346;48.280;14.292;2023-02-22T07:22:51;18.89;;;18.81;;
50417;SDS011;36346;48.280;14.292;2023-02-22T07:25:19;17.58;;;17.58;;
50417;SDS011;36346;48.280;14.292;2023-02-22T07:27:49;17.50;;;17.49;;
50417;SDS011;36346;48.280;14.292;2023-02-22T07:30:20;16.86;;;16.86;;
50417;SDS011;36346;48.280;14.292;2023-02-22T07:32:52;17.14;;;17.14;;
50417;SDS011;36346;48.280;14.292;2023-02-22T07:37:50;16.70;;;16.70;;
50417;SDS011;36346;48.280;14.292;2023-02-22T07:40:23;16.54;;;16.54;;
50417;SDS011;36346;48.280;14.292;2023-02-22T07:42:56;17.31;;;17.31;;
50417;SDS011;36346;48.280;14.292;2023-02-22T07:45:29;17.49;;;17.49;;
50417;SDS011;36346;48.280;14.292;2023-02-22T07:47:59;17.34;;;17.34;;
50417;SDS011;36346;48.280;14.292;2023-02-22T07:50:29;17.74;;;17.74;;
50417;SDS011;36346;48.280;14.292;2023-02-22T07:52:59;17.77;;;17.77;;
50417;SDS011;36346;48.280;14.292;2023-02-22T07:55:30;18.27;;;18.27;;
50417;SDS011;36346;48.280;14.292;2023-02-22T07:57:59;17.99;;;17.99;;
50417;SDS011;36346;48.280;14.292;2023-02-22T08:00:33;18.11;;;18.08;;
50417;SDS011;36346;48.280;14.292;2023-02-22T08:03:07;19.47;;;19.46;;
50417;SDS011;36346;48.280;14.292;2023-02-22T08:05:36;20.79;;;20.78;;
50417;SDS011;36346;48.280;14.292;2023-02-22T08:08:06;21.90;;;21.90;;
50417;SDS011;36346;48.280;14.292;2023-02-22T08:10:34;21.70;;;21.69;;
50417;SDS011;36346;48.280;14.292;2023-02-22T08:13:03;20.81;;;20.81;;
50417;SDS011;36346;48.280;14.292;2023-02-22T08:15:33;21.53;;;21.53;;
50417;SDS011;36346;48.280;14.292;2023-02-22T08:18:03;21.66;;;21.65;;
50417;SDS011;36346;48.280;14.292;2023-02-22T08:20:36;22.54;;;22.53;;
50417;SDS011;36346;48.280;14.292;2023-02-22T08:23:05;24.95;;;24.88;;
50417;SDS011;36346;48.280;14.292;2023-02-22T08:25:34;26.94;;;26.90;;
50417;SDS011;36346;48.280;14.292;2023-02-22T08:28:03;29.09;;;29.03;;
50417;SDS011;36346;48.280;14.292;2023-02-22T08:30:33;32.83;;;32.56;;
50417;SDS011;36346;48.280;14.292;2023-02-22T08:33:06;38.33;;;37.71;;
50417;SDS011;36346;48.280;14.292;2023-02-22T08:35:34;41.65;;;40.95;;
50417;SDS011;36346;48.280;14.292;2023-02-22T08:38:04;44.32;;;43.34;;
50417;SDS011;36346;48.280;14.292;2023-02-22T08:40:34;43.30;;;42.53;;
50417;SDS011;36346;48.280;14.292;2023-02-22T08:43:03;43.35;;;42.68;;
50417;SDS011;36346;48.280;14.292;2023-02-22T08:45:31;46.08;;;45.49;;
50417;SDS011;36346;48.280;14.292;2023-02-22T08:47:59;47.93;;;47.13;;
50417;SDS011;36346;48.280;14.292;2023-02-22T08:50:28;46.27;;;45.40;;
50417;SDS011;36346;48.280;14.292;2023-02-22T08:53:01;45.59;;;45.05;;
50417;SDS011;36346;48.280;14.292;2023-02-22T08:55:31;45.00;;;44.39;;
50417;SDS011;36346;48.280;14.292;2023-02-22T08:58:02;43.17;;;42.61;;
50417;SDS011;36346;48.280;14.292;2023-02-22T09:00:32;42.62;;;42.19;;
50417;SDS011;36346;48.280;14.292;2023-02-22T09:03:01;43.06;;;42.50;;
50417;SDS011;36346;48.280;14.292;2023-02-22T09:05:30;33.96;;;33.64;;
50417;SDS011;36346;48.280;14.292;2023-02-22T09:07:58;30.33;;;30.16;;
50417;SDS011;36346;48.280;14.292;2023-02-22T09:10:31;29.52;;;29.37;;
50417;SDS011;36346;48.280;14.292;2023-02-22T09:13:00;24.71;;;24.65;;
50417;SDS011;36346;48.280;14.292;2023-02-22T09:15:30;20.76;;;20.76;;
50417;SDS011;36346;48.280;14.292;2023-02-22T09:18:00;20.64;;;20.63;;
50417;SDS011;36346;48.280;14.292;2023-02-22T09:20:28;19.14;;;19.11;;
50417;SDS011;36346;48.280;14.292;2023-02-22T09:22:56;17.11;;;17.11;;
50417;SDS011;36346;48.280;14.292;2023-02-22T09:25:24;14.83;;;14.83;;
50417;SDS011;36346;48.280;14.292;2023-02-22T09:27:54;13.96;;;13.96;;
50417;SDS011;36346;48.280;14.292;2023-02-22T09:30:24;14.35;;;14.35;;
50417;SDS011;36346;48.280;14.292;2023-02-22T09:32:56;13.90;;;13.90;;
50417;SDS011;36346;48.280;14.292;2023-02-22T09:35:29;13.02;;;13.01;;
50417;SDS011;36346;48.280;14.292;2023-02-22T09:37:58;13.48;;;13.48;;
50417;SDS011;36346;48.280;14.292;2023-02-22T09:40:28;13.65;;;13.65;;
50417;SDS011;36346;48.280;14.292;2023-02-22T09:43:03;14.13;;;14.13;;
50417;SDS011;36346;48.280;14.292;2023-02-22T09:49:04;15.57;;;15.54;;
50417;SDS011;36346;48.280;14.292;2023-02-22T09:51:38;16.78;;;16.78;;
50417;SDS011;36346;48.280;14.292;2023-02-22T09:57:09;16.13;;;16.13;;
50417;SDS011;36346;48.280;14.292;2023-02-22T09:59:44;15.17;;;15.15;;
50417;SDS011;36346;48.280;14.292;2023-02-22T10:02:28;15.45;;;15.45;;
50417;SDS011;36346;48.280;14.292;2023-02-22T10:05:14;13.32;;;13.31;;
50417;SDS011;36346;48.280;14.292;2023-02-22T10:07:53;10.96;;;10.94;;
50417;SDS011;36346;48.280;14.292;2023-02-22T10:10:28;9.88;;;9.84;;
50417;SDS011;36346;48.280;14.292;2023-02-22T10:13:04;9.18;;;9.16;;
50417;SDS011;36346;48.280;14.292;2023-02-22T10:26:59;7.60;;;7.57;;
50417;SDS011;36346;48.280;14.292;2023-02-22T10:32:00;6.12;;;6.12;;
50417;SDS011;36346;48.280;14.292;2023-02-22T10:34:39;6.55;;;6.53;;
50417;SDS011;36346;48.280;14.292;2023-02-22T10:37:25;6.41;;;6.40;;
50417;SDS011;36346;48.280;14.292;2023-02-22T10:40:09;6.82;;;6.80;;
50417;SDS011;36346;48.280;14.292;2023-02-22T10:42:39;6.81;;;6.78;;
50417;SDS011;36346;48.280;14.292;2023-02-22T10:45:22;7.08;;;7.05;;
50417;SDS011;36346;48.280;14.292;2023-02-22T10:47:55;6.82;;;6.78;;
50417;SDS011;36346;48.280;14.292;2023-02-22T10:50:28;6.30;;;6.29;;
50417;SDS011;36346;48.280;14.292;2023-02-22T10:52:58;6.31;;;6.30;;
50417;SDS011;36346;48.280;14.292;2023-02-22T10:55:26;5.70;;;5.69;;
50417;SDS011;36346;48.280;14.292;2023-02-22T10:57:59;5.19;;;5.19;;
50417;SDS011;36346;48.280;14.292;2023-02-22T11:03:16;8.13;;;8.13;;
50417;SDS011;36346;48.280;14.292;2023-02-22T11:05:47;7.36;;;7.35;;
50417;SDS011;36346;48.280;14.292;2023-02-22T11:08:29;6.15;;;6.14;;
50417;SDS011;36346;48.280;14.292;2023-02-22T11:11:00;6.29;;;6.28;;
50417;SDS011;36346;48.280;14.292;2023-02-22T11:13:32;5.80;;;5.78;;
50417;SDS011;36346;48.280;14.292;2023-02-22T11:16:17;5.73;;;5.73;;
50417;SDS011;36346;48.280;14.292;2023-02-22T11:18:48;5.51;;;5.49;;
50417;SDS011;36346;48.280;14.292;2023-02-22T11:21:20;5.99;;;5.99;;
50417;SDS011;36346;48.280;14.292;2023-02-22T11:23:49;5.60;;;5.59;;
50417;SDS011;36346;48.280;14.292;2023-02-22T11:26:52;5.01;;;5.01;;
50417;SDS011;36346;48.280;14.292;2023-02-22T11:29:41;5.51;;;5.51;;
50417;SDS011;36346;48.280;14.292;2023-02-22T11:32:13;5.51;;;5.50;;
50417;SDS011;36346;48.280;14.292;2023-02-22T11:34:48;5.26;;;5.22;;
50417;SDS011;36346;48.280;14.292;2023-02-22T11:37:35;5.53;;;5.50;;
50417;SDS011;36346;48.280;14.292;2023-02-22T11:40:05;4.73;;;4.72;;
50417;SDS011;36346;48.280;14.292;2023-02-22T11:42:40;4.82;;;4.82;;
50417;SDS011;36346;48.280;14.292;2023-02-22T11:45:09;4.88;;;4.88;;
50417;SDS011;36346;48.280;14.292;2023-02-22T11:47:49;4.33;;;4.32;;
50417;SDS011;36346;48.280;14.292;2023-02-22T11:50:39;4.21;;;4.21;;
50417;SDS011;36346;48.280;14.292;2023-02-22T12:01:57;3.97;;;3.96;;
50417;SDS011;36346;48.280;14.292;2023-02-22T12:10:05;4.05;;;4.05;;
50417;SDS011;36346;48.280;14.292;2023-02-22T12:15:50;4.39;;;4.39;;
50417;SDS011;36346;48.280;14.292;2023-02-22T12:21:23;4.58;;;4.58;;
50417;SDS011;36346;48.280;14.292;2023-02-22T12:24:06;4.94;;;4.93;;
50417;SDS011;36346;48.280;14.292;2023-02-22T12:26:47;4.68;;;4.68;;
50417;SDS011;36346;48.280;14.292;2023-02-22T12:34:49;5.30;;;5.30;;
50417;SDS011;36346;48.280;14.292;2023-02-22T12:40:20;5.45;;;5.45;;
50417;SDS011;36346;48.280;14.292;2023-02-22T12:45:27;5.18;;;5.18;;
50417;SDS011;36346;48.280;14.292;2023-02-22T12:53:51;5.35;;;5.35;;
50417;SDS011;36346;48.280;14.292;2023-02-22T12:56:33;4.58;;;4.58;;
50417;SDS011;36346;48.280;14.292;2023-02-22T12:59:16;4.81;;;4.81;;
50417;SDS011;36346;48.280;14.292;2023-02-22T13:02:20;5.00;;;5.00;;
50417;SDS011;36346;48.280;14.292;2023-02-22T13:04:56;5.81;;;5.80;;
50417;SDS011;36346;48.280;14.292;2023-02-22T13:12:55;5.19;;;5.19;;
50417;SDS011;36346;48.280;14.292;2023-02-22T13:27:13;4.43;;;4.43;;
50417;SDS011;36346;48.280;14.292;2023-02-22T13:29:48;4.47;;;4.47;;
50417;SDS011;36346;48.280;14.292;2023-02-22T13:38:09;4.09;;;4.09;;
50417;SDS011;36346;48.280;14.292;2023-02-22T13:41:08;3.76;;;3.76;;
50417;SDS011;36346;48.280;14.292;2023-02-22T13:49:54;3.62;;;3.62;;
50417;SDS011;36346;48.280;14.292;2023-02-22T13:52:28;3.58;;;3.57;;
50417;SDS011;36346;48.280;14.292;2023-02-22T13:54:59;3.70;;;3.68;;
50417;SDS011;36346;48.280;14.292;2023-02-22T13:57:39;3.03;;;3.03;;
50417;SDS011;36346;48.280;14.292;2023-02-22T14:00:19;5.66;;;5.33;;
50417;SDS011;36346;48.280;14.292;2023-02-22T14:13:19;3.05;;;2.97;;
50417;SDS011;36346;48.280;14.292;2023-02-22T14:18:34;3.33;;;3.23;;
50417;SDS011;36346;48.280;14.292;2023-02-22T14:21:08;3.35;;;3.24;;
50417;SDS011;36346;48.280;14.292;2023-02-22T14:23:39;3.12;;;3.02;;
50417;SDS011;36346;48.280;14.292;2023-02-22T14:26:26;3.15;;;3.12;;
50417;SDS011;36346;48.280;14.292;2023-02-22T14:31:32;2.75;;;2.75;;
50417;SDS011;36346;48.280;14.292;2023-02-22T14:39:24;3.23;;;3.23;;
50417;SDS011;36346;48.280;14.292;2023-02-22T14:42:03;3.12;;;3.11;;
50417;SDS011;36346;48.280;14.292;2023-02-22T14:47:17;2.96;;;2.95;;
50417;SDS011;36346;48.280;14.292;2023-02-22T14:49:49;3.84;;;3.82;;
50417;SDS011;36346;48.280;14.292;2023-02-22T14:52:25;3.64;;;3.63;;
50417;SDS011;36346;48.280;14.292;2023-02-22T14:54:57;3.43;;;3.42;;
50417;SDS011;36346;48.280;14.292;2023-02-22T14:57:43;3.18;;;3.17;;
50417;SDS011;36346;48.280;14.292;2023-02-22T15:00:21;3.35;;;3.33;;
50417;SDS011;36346;48.280;14.292;2023-02-22T15:02:58;4.18;;;4.16;;
50417;SDS011;36346;48.280;14.292;2023-02-22T15:05:29;4.00;;;3.99;;
50417;SDS011;36346;48.280;14.292;2023-02-22T15:08:05;4.63;;;4.61;;
50417;SDS011;36346;48.280;14.292;2023-02-22T15:10:39;6.34;;;6.32;;
50417;SDS011;36346;48.280;14.292;2023-02-22T15:13:14;4.19;;;4.17;;
50417;SDS011;36346;48.280;14.292;2023-02-22T15:15:46;3.75;;;3.75;;
50417;SDS011;36346;48.280;14.292;2023-02-22T15:18:18;3.65;;;3.65;;
50417;SDS011;36346;48.280;14.292;2023-02-22T15:20:49;3.62;;;3.61;;
50417;SDS011;36346;48.280;14.292;2023-02-22T15:23:25;2.63;;;2.62;;
50417;SDS011;36346;48.280;14.292;2023-02-22T15:25:57;2.73;;;2.73;;
50417;SDS011;36346;48.280;14.292;2023-02-22T15:28:26;2.71;;;2.71;;
50417;SDS011;36346;48.280;14.292;2023-02-22T15:31:15;2.72;;;2.71;;
50417;SDS011;36346;48.280;14.292;2023-02-22T15:33:53;2.99;;;2.97;;
50417;SDS011;36346;48.280;14.292;2023-02-22T15:36:26;3.66;;;3.64;;
50417;SDS011;36346;48.280;14.292;2023-02-22T15:38:57;5.78;;;5.67;;
50417;SDS011;36346;48.280;14.292;2023-02-22T15:41:30;3.76;;;3.73;;
50417;SDS011;36346;48.280;14.292;2023-02-22T15:44:07;3.68;;;3.67;;
50417;SDS011;36346;48.280;14.292;2023-02-22T15:46:50;6.01;;;6.00;;
50417;SDS011;36346;48.280;14.292;2023-02-22T15:49:22;3.77;;;3.77;;
50417;SDS011;36346;48.280;14.292;2023-02-22T15:51:59;3.76;;;3.76;;
50417;SDS011;36346;48.280;14.292;2023-02-22T15:54:37;4.92;;;4.89;;
50417;SDS011;36346;48.280;14.292;2023-02-22T15:57:09;4.13;;;4.10;;
50417;SDS011;36346;48.280;14.292;2023-02-22T15:59:43;3.88;;;3.82;;
50417;SDS011;36346;48.280;14.292;2023-02-22T16:02:27;4.68;;;4.63;;
50417;SDS011;36346;48.280;14.292;2023-02-22T16:05:02;4.24;;;4.20;;
50417;SDS011;36346;48.280;14.292;2023-02-22T16:07:43;4.12;;;4.09;;
50417;SDS011;36346;48.280;14.292;2023-02-22T16:10:28;4.66;;;4.63;;
50417;SDS011;36346;48.280;14.292;2023-02-22T16:13:04;4.38;;;4.37;;
50417;SDS011;36346;48.280;14.292;2023-02-22T16:15:59;5.04;;;5.03;;
50417;SDS011;36346;48.280;14.292;2023-02-22T16:18:32;4.29;;;4.28;;
50417;SDS011;36346;48.280;14.292;2023-02-22T16:21:07;4.15;;;4.15;;
50417;SDS011;36346;48.280;14.292;2023-02-22T16:23:57;6.01;;;5.99;;
50417;SDS011;36346;48.280;14.292;2023-02-22T16:26:41;5.90;;;5.88;;
50417;SDS011;36346;48.280;14.292;2023-02-22T16:29:33;4.63;;;4.62;;
50417;SDS011;36346;48.280;14.292;2023-02-22T16:32:01;4.48;;;4.48;;
50417;SDS011;36346;48.280;14.292;2023-02-22T16:34:30;6.08;;;6.07;;
50417;SDS011;36346;48.280;14.292;2023-02-22T16:36:58;5.26;;;5.24;;
50417;SDS011;36346;48.280;14.292;2023-02-22T16:39:27;4.64;;;4.63;;
50417;SDS011;36346;48.280;14.292;2023-02-22T16:41:59;4.68;;;4.65;;
50417;SDS011;36346;48.280;14.292;2023-02-22T16:44:28;4.65;;;4.62;;
50417;SDS011;36346;48.280;14.292;2023-02-22T16:46:57;4.60;;;4.58;;
50417;SDS011;36346;48.280;14.292;2023-02-22T16:49:26;4.95;;;4.95;;
50417;SDS011;36346;48.280;14.292;2023-02-22T16:52:00;5.20;;;5.19;;
50417;SDS011;36346;48.280;14.292;2023-02-22T16:54:34;5.02;;;5.01;;
50417;SDS011;36346;48.280;14.292;2023-02-22T16:57:09;4.35;;;4.34;;
50417;SDS011;36346;48.280;14.292;2023-02-22T16:59:44;4.09;;;4.08;;
50417;SDS011;36346;48.280;14.292;2023-02-22T17:02:14;3.98;;;3.97;;
50417;SDS011;36346;48.280;14.292;2023-02-22T17:04:43;3.70;;;3.70;;
50417;SDS011;36346;48.280;14.292;2023-02-22T17:07:19;4.28;;;4.28;;
50417;SDS011;36346;48.280;14.292;2023-02-22T17:09:50;4.43;;;4.43;;
50417;SDS011;36346;48.280;14.292;2023-02-22T17:12:18;4.28;;;4.27;;
50417;SDS011;36346;48.280;14.292;2023-02-22T17:14:46;4.31;;;4.31;;
50417;SDS011;36346;48.280;14.292;2023-02-22T17:17:14;4.98;;;4.98;;